sensor_id;sensor_type;location;lat;lon;timestamp;temperature;humidity
37380;DHT22;23252;-33.992;18.480;2023-03-01T00:00:06;18.70;99.90
37380;DHT22;23252;-33.992;18.480;2023-03-01T00:02:33;18.70;99.90
37380;DHT22;23252;-33.992;18.480;2023-03-01T00:04:59;18.70;99.90
37380;DHT22;23252;-33.992;18.480;2023-03-01T00:07:26;18.60;99.90
37380;DHT22;23252;-33.992;18.480;2023-03-01T00:09:52;18.60;99.90
37380;DHT22;23252;-33.992;18.480;2023-03-01T00:12:20;18.60;99.90
37380;DHT22;23252;-33.992;18.480;2023-03-01T00:14:46;18.60;99.90
37380;DHT22;23252;-33.992;18.480;2023-03-01T00:17:13;18.60;99.90
37380;DHT22;23252;-33.992;18.480;2023-03-01T00:19:39;18.50;99.90
37380;DHT22;23252;-33.992;18.480;2023-03-01T00:22:06;18.60;99.90
37380;DHT22;23252;-33.992;18.480;2023-03-01T00:24:32;18.50;99.90
37380;DHT22;23252;-33.992;18.480;2023-03-01T00:26:59;18.50;99.90
37380;DHT22;23252;-33.992;18.480;2023-03-01T00:29:25;18.50;99.90
37380;DHT22;23252;-33.992;18.480;2023-03-01T00:31:52;18.40;99.90
37380;DHT22;23252;-33.992;18.480;2023-03-01T00:34:19;18.50;99.90
37380;DHT22;23252;-33.992;18.480;2023-03-01T00:36:45;18.50;99.90
37380;DHT22;23252;-33.992;18.480;2023-03-01T00:39:14;18.50;99.90
37380;DHT22;23252;-33.992;18.480;2023-03-01T00:41:41;18.50;99.90
37380;DHT22;23252;-33.992;18.480;2023-03-01T00:44:08;18.50;99.90
37380;DHT22;23252;-33.992;18.480;2023-03-01T00:46:35;18.50;99.90
37380;DHT22;23252;-33.992;18.480;2023-03-01T00:49:01;18.50;99.90
37380;DHT22;23252;-33.992;18.480;2023-03-01T00:51:30;18.60;99.90
37380;DHT22;23252;-33.992;18.480;2023-03-01T00:53:59;18.60;99.90
37380;DHT22;23252;-33.992;18.480;2023-03-01T00:56:26;18.60;99.90
37380;DHT22;23252;-33.992;18.480;2023-03-01T00:58:53;18.60;99.90
37380;DHT22;23252;-33.992;18.480;2023-03-01T01:01:22;18.50;99.90
37380;DHT22;23252;-33.992;18.480;2023-03-01T01:03:51;18.50;99.90
37380;DHT22;23252;-33.992;18.480;2023-03-01T01:06:21;18.50;99.90
37380;DHT22;23252;-33.992;18.480;2023-03-01T01:08:48;18.50;99.90
37380;DHT22;23252;-33.992;18.480;2023-03-01T01:11:16;18.50;99.90
37380;DHT22;23252;-33.992;18.480;2023-03-01T01:13:44;18.50;99.90
37380;DHT22;23252;-33.992;18.480;2023-03-01T01:16:12;18.50;99.90
37380;DHT22;23252;-33.992;18.480;2023-03-01T01:18:39;18.50;99.90
37380;DHT22;23252;-33.992;18.480;2023-03-01T01:21:11;18.50;99.90
37380;DHT22;23252;-33.992;18.480;2023-03-01T01:23:40;18.50;99.90
37380;DHT22;23252;-33.992;18.480;2023-03-01T01:26:19;18.50;99.90
37380;DHT22;23252;-33.992;18.480;2023-03-01T01:28:46;18.50;99.90
37380;DHT22;23252;-33.992;18.480;2023-03-01T01:31:13;18.50;99.90
37380;DHT22;23252;-33.992;18.480;2023-03-01T01:33:41;18.50;99.90
37380;DHT22;23252;-33.992;18.480;2023-03-01T01:36:08;18.50;99.90
37380;DHT22;23252;-33.992;18.480;2023-03-01T01:38:35;18.40;99.90
37380;DHT22;23252;-33.992;18.480;2023-03-01T01:41:02;18.40;99.90
37380;DHT22;23252;-33.992;18.480;2023-03-01T01:43:34;18.40;99.90
37380;DHT22;23252;-33.992;18.480;2023-03-01T01:46:16;18.40;99.90
37380;DHT22;23252;-33.992;18.480;2023-03-01T01:48:48;18.50;99.90
37380;DHT22;23252;-33.992;18.480;2023-03-01T01:51:19;18.40;99.90
37380;DHT22;23252;-33.992;18.480;2023-03-01T01:53:53;18.40;99.90
37380;DHT22;23252;-33.992;18.480;2023-03-01T01:56:22;18.40;99.90
37380;DHT22;23252;-33.992;18.480;2023-03-01T01:58:50;18.40;99.90
37380;DHT22;23252;-33.992;18.480;2023-03-01T02:01:17;18.40;99.90
37380;DHT22;23252;-33.992;18.480;2023-03-01T02:03:45;18.40;99.90
37380;DHT22;23252;-33.992;18.480;2023-03-01T02:08:43;18.40;99.90
37380;DHT22;23252;-33.992;18.480;2023-03-01T04:16:37;18.10;99.90
37380;DHT22;23252;-33.992;18.480;2023-03-01T04:19:03;18.20;99.90
37380;DHT22;23252;-33.992;18.480;2023-03-01T04:21:32;18.20;99.90
37380;DHT22;23252;-33.992;18.480;2023-03-01T04:23:58;18.20;99.90
37380;DHT22;23252;-33.992;18.480;2023-03-01T04:26:25;18.20;99.90
37380;DHT22;23252;-33.992;18.480;2023-03-01T04:28:52;18.20;99.90
37380;DHT22;23252;-33.992;18.480;2023-03-01T04:31:19;18.20;99.90
37380;DHT22;23252;-33.992;18.480;2023-03-01T04:33:49;18.20;99.90
37380;DHT22;23252;-33.992;18.480;2023-03-01T04:36:18;18.20;99.90
37380;DHT22;23252;-33.992;18.480;2023-03-01T04:38:46;18.20;99.90
37380;DHT22;23252;-33.992;18.480;2023-03-01T04:41:15;18.20;99.90
37380;DHT22;23252;-33.992;18.480;2023-03-01T04:43:42;18.10;99.90
37380;DHT22;23252;-33.992;18.480;2023-03-01T04:46:11;18.10;99.90
37380;DHT22;23252;-33.992;18.480;2023-03-01T04:48:40;18.10;99.90
37380;DHT22;23252;-33.992;18.480;2023-03-01T04:51:07;18.10;99.90
37380;DHT22;23252;-33.992;18.480;2023-03-01T04:53:35;18.10;99.90
37380;DHT22;23252;-33.992;18.480;2023-03-01T04:56:05;18.10;99.90
37380;DHT22;23252;-33.992;18.480;2023-03-01T04:58:32;18.10;99.90
37380;DHT22;23252;-33.992;18.480;2023-03-01T05:00:58;18.20;99.90
37380;DHT22;23252;-33.992;18.480;2023-03-01T05:03:25;18.20;99.90
37380;DHT22;23252;-33.992;18.480;2023-03-01T05:05:52;18.20;99.90
37380;DHT22;23252;-33.992;18.480;2023-03-01T05:08:19;18.20;99.90
37380;DHT22;23252;-33.992;18.480;2023-03-01T05:10:51;18.20;99.90
37380;DHT22;23252;-33.992;18.480;2023-03-01T05:13:19;18.20;99.90
37380;DHT22;23252;-33.992;18.480;2023-03-01T05:15:54;18.20;99.90
37380;DHT22;23252;-33.992;18.480;2023-03-01T05:18:21;18.30;99.90
37380;DHT22;23252;-33.992;18.480;2023-03-01T05:21:00;18.30;99.90
37380;DHT22;23252;-33.992;18.480;2023-03-01T05:23:27;18.30;99.90
37380;DHT22;23252;-33.992;18.480;2023-03-01T05:25:54;18.40;99.90
37380;DHT22;23252;-33.992;18.480;2023-03-01T05:28:20;18.40;99.90
37380;DHT22;23252;-33.992;18.480;2023-03-01T05:30:47;18.40;99.90
37380;DHT22;23252;-33.992;18.480;2023-03-01T05:33:17;18.50;99.90
37380;DHT22;23252;-33.992;18.480;2023-03-01T05:35:45;18.50;99.90
37380;DHT22;23252;-33.992;18.480;2023-03-01T05:38:12;18.50;99.90
37380;DHT22;23252;-33.992;18.480;2023-03-01T05:40:40;18.60;99.90
37380;DHT22;23252;-33.992;18.480;2023-03-01T05:43:12;18.60;99.90
37380;DHT22;23252;-33.992;18.480;2023-03-01T05:45:42;18.70;99.90
37380;DHT22;23252;-33.992;18.480;2023-03-01T05:48:09;18.70;99.90
37380;DHT22;23252;-33.992;18.480;2023-03-01T05:50:41;18.80;99.90
37380;DHT22;23252;-33.992;18.480;2023-03-01T05:53:14;18.80;99.90
37380;DHT22;23252;-33.992;18.480;2023-03-01T05:55:41;18.80;99.90
37380;DHT22;23252;-33.992;18.480;2023-03-01T05:58:12;18.90;99.90
37380;DHT22;23252;-33.992;18.480;2023-03-01T06:00:40;18.90;99.90
37380;DHT22;23252;-33.992;18.480;2023-03-01T06:03:06;19.00;99.90
37380;DHT22;23252;-33.992;18.480;2023-03-01T06:05:35;19.00;99.90
37380;DHT22;23252;-33.992;18.480;2023-03-01T06:08:02;19.00;99.90
37380;DHT22;23252;-33.992;18.480;2023-03-01T06:10:32;19.00;99.90
37380;DHT22;23252;-33.992;18.480;2023-03-01T06:12:59;19.00;99.90
37380;DHT22;23252;-33.992;18.480;2023-03-01T06:15:26;19.10;99.90
37380;DHT22;23252;-33.992;18.480;2023-03-01T06:17:54;19.10;99.90
37380;DHT22;23252;-33.992;18.480;2023-03-01T06:20:25;19.20;99.90
37380;DHT22;23252;-33.992;18.480;2023-03-01T06:22:52;19.20;99.90
37380;DHT22;23252;-33.992;18.480;2023-03-01T06:25:21;19.20;99.90
37380;DHT22;23252;-33.992;18.480;2023-03-01T06:27:48;19.30;99.90
37380;DHT22;23252;-33.992;18.480;2023-03-01T06:30:17;19.30;99.90
37380;DHT22;23252;-33.992;18.480;2023-03-01T06:32:44;19.40;99.90
37380;DHT22;23252;-33.992;18.480;2023-03-01T06:35:12;19.30;99.90
37380;DHT22;23252;-33.992;18.480;2023-03-01T06:37:40;19.40;99.90
37380;DHT22;23252;-33.992;18.480;2023-03-01T06:40:08;19.40;99.90
37380;DHT22;23252;-33.992;18.480;2023-03-01T06:42:35;19.40;99.90
37380;DHT22;23252;-33.992;18.480;2023-03-01T06:45:02;19.50;99.90
37380;DHT22;23252;-33.992;18.480;2023-03-01T06:47:29;19.50;99.90
37380;DHT22;23252;-33.992;18.480;2023-03-01T06:49:55;19.50;99.90
37380;DHT22;23252;-33.992;18.480;2023-03-01T06:52:22;19.50;99.90
37380;DHT22;23252;-33.992;18.480;2023-03-01T06:54:48;19.60;99.90
37380;DHT22;23252;-33.992;18.480;2023-03-01T06:57:14;19.50;99.90
37380;DHT22;23252;-33.992;18.480;2023-03-01T06:59:41;19.60;99.90
37380;DHT22;23252;-33.992;18.480;2023-03-01T07:02:13;19.60;99.90
37380;DHT22;23252;-33.992;18.480;2023-03-01T07:04:41;19.50;99.90
37380;DHT22;23252;-33.992;18.480;2023-03-01T07:07:08;19.60;99.90
37380;DHT22;23252;-33.992;18.480;2023-03-01T07:09:35;19.60;99.90
37380;DHT22;23252;-33.992;18.480;2023-03-01T07:12:02;19.60;99.90
37380;DHT22;23252;-33.992;18.480;2023-03-01T07:14:29;19.70;99.90
37380;DHT22;23252;-33.992;18.480;2023-03-01T07:16:55;19.70;99.90
37380;DHT22;23252;-33.992;18.480;2023-03-01T07:19:28;19.80;99.90
37380;DHT22;23252;-33.992;18.480;2023-03-01T07:21:56;19.90;99.90
37380;DHT22;23252;-33.992;18.480;2023-03-01T07:24:23;19.90;99.90
37380;DHT22;23252;-33.992;18.480;2023-03-01T07:26:50;20.00;99.90
37380;DHT22;23252;-33.992;18.480;2023-03-01T07:29:17;20.00;99.90
37380;DHT22;23252;-33.992;18.480;2023-03-01T07:31:44;20.00;99.90
37380;DHT22;23252;-33.992;18.480;2023-03-01T07:34:11;20.10;99.90
37380;DHT22;23252;-33.992;18.480;2023-03-01T07:36:38;20.10;99.90
37380;DHT22;23252;-33.992;18.480;2023-03-01T07:39:05;20.10;99.90
37380;DHT22;23252;-33.992;18.480;2023-03-01T07:41:32;20.10;99.90
37380;DHT22;23252;-33.992;18.480;2023-03-01T07:43:58;20.10;99.90
37380;DHT22;23252;-33.992;18.480;2023-03-01T07:46:25;20.20;99.90
37380;DHT22;23252;-33.992;18.480;2023-03-01T07:48:51;20.20;99.90
37380;DHT22;23252;-33.992;18.480;2023-03-01T07:51:18;20.30;99.90
37380;DHT22;23252;-33.992;18.480;2023-03-01T07:53:48;20.30;99.90
37380;DHT22;23252;-33.992;18.480;2023-03-01T07:56:15;20.40;99.90
37380;DHT22;23252;-33.992;18.480;2023-03-01T07:58:44;20.40;99.90
37380;DHT22;23252;-33.992;18.480;2023-03-01T08:01:12;20.50;99.90
37380;DHT22;23252;-33.992;18.480;2023-03-01T08:03:38;20.50;99.90
37380;DHT22;23252;-33.992;18.480;2023-03-01T08:06:07;20.50;99.90
37380;DHT22;23252;-33.992;18.480;2023-03-01T08:08:34;20.50;99.90
37380;DHT22;23252;-33.992;18.480;2023-03-01T08:11:03;20.50;99.90
37380;DHT22;23252;-33.992;18.480;2023-03-01T08:13:30;20.50;99.90
37380;DHT22;23252;-33.992;18.480;2023-03-01T08:16:09;20.50;99.90
37380;DHT22;23252;-33.992;18.480;2023-03-01T08:18:36;20.60;99.90
37380;DHT22;23252;-33.992;18.480;2023-03-01T08:21:12;20.70;99.90
37380;DHT22;23252;-33.992;18.480;2023-03-01T08:23:39;20.70;99.90
37380;DHT22;23252;-33.992;18.480;2023-03-01T08:26:14;20.70;99.90
37380;DHT22;23252;-33.992;18.480;2023-03-01T08:28:42;20.70;99.90
37380;DHT22;23252;-33.992;18.480;2023-03-01T08:33:43;20.70;99.90
37380;DHT22;23252;-33.992;18.480;2023-03-01T08:36:10;20.80;99.90
37380;DHT22;23252;-33.992;18.480;2023-03-01T08:38:36;20.80;99.90
37380;DHT22;23252;-33.992;18.480;2023-03-01T08:41:03;20.80;99.90
37380;DHT22;23252;-33.992;18.480;2023-03-01T08:43:30;20.80;99.90
37380;DHT22;23252;-33.992;18.480;2023-03-01T08:45:57;20.80;99.90
37380;DHT22;23252;-33.992;18.480;2023-03-01T08:48:23;20.80;99.90
37380;DHT22;23252;-33.992;18.480;2023-03-01T08:50:50;20.90;99.90
37380;DHT22;23252;-33.992;18.480;2023-03-01T08:53:16;20.90;99.90
37380;DHT22;23252;-33.992;18.480;2023-03-01T08:55:43;21.00;99.90
37380;DHT22;23252;-33.992;18.480;2023-03-01T08:58:10;21.10;99.90
37380;DHT22;23252;-33.992;18.480;2023-03-01T09:00:37;21.10;99.90
37380;DHT22;23252;-33.992;18.480;2023-03-01T09:03:03;21.10;99.90
37380;DHT22;23252;-33.992;18.480;2023-03-01T09:05:34;21.10;99.90
37380;DHT22;23252;-33.992;18.480;2023-03-01T09:08:02;21.10;99.90
37380;DHT22;23252;-33.992;18.480;2023-03-01T09:10:29;21.20;99.90
37380;DHT22;23252;-33.992;18.480;2023-03-01T09:12:55;21.30;99.90
37380;DHT22;23252;-33.992;18.480;2023-03-01T09:15:22;21.30;99.90
37380;DHT22;23252;-33.992;18.480;2023-03-01T09:17:48;21.30;99.90
37380;DHT22;23252;-33.992;18.480;2023-03-01T09:20:15;21.40;99.90
37380;DHT22;23252;-33.992;18.480;2023-03-01T09:22:41;21.40;99.90
37380;DHT22;23252;-33.992;18.480;2023-03-01T09:25:08;21.50;99.90
37380;DHT22;23252;-33.992;18.480;2023-03-01T09:27:35;21.50;99.90
37380;DHT22;23252;-33.992;18.480;2023-03-01T09:30:02;21.50;99.90
37380;DHT22;23252;-33.992;18.480;2023-03-01T09:32:30;21.60;99.90
37380;DHT22;23252;-33.992;18.480;2023-03-01T09:34:57;21.60;99.90
37380;DHT22;23252;-33.992;18.480;2023-03-01T09:37:34;21.60;99.90
37380;DHT22;23252;-33.992;18.480;2023-03-01T09:40:01;21.60;99.90
37380;DHT22;23252;-33.992;18.480;2023-03-01T09:42:32;21.60;99.90
37380;DHT22;23252;-33.992;18.480;2023-03-01T09:45:03;21.80;99.90
37380;DHT22;23252;-33.992;18.480;2023-03-01T09:47:32;21.90;99.90
37380;DHT22;23252;-33.992;18.480;2023-03-01T09:50:12;21.90;99.90
37380;DHT22;23252;-33.992;18.480;2023-03-01T09:53:03;21.90;99.90
37380;DHT22;23252;-33.992;18.480;2023-03-01T10:04:26;22.10;99.90
37380;DHT22;23252;-33.992;18.480;2023-03-01T10:07:05;22.20;99.90
37380;DHT22;23252;-33.992;18.480;2023-03-01T10:09:39;22.20;99.90
37380;DHT22;23252;-33.992;18.480;2023-03-01T10:12:18;22.10;99.90
37380;DHT22;23252;-33.992;18.480;2023-03-01T10:14:57;22.10;99.90
37380;DHT22;23252;-33.992;18.480;2023-03-01T10:22:43;22.40;99.90
37380;DHT22;23252;-33.992;18.480;2023-03-01T10:25:20;22.50;99.90
37380;DHT22;23252;-33.992;18.480;2023-03-01T10:27:55;22.60;99.90
37380;DHT22;23252;-33.992;18.480;2023-03-01T10:30:39;22.60;99.90
37380;DHT22;23252;-33.992;18.480;2023-03-01T10:33:35;22.50;99.90
37380;DHT22;23252;-33.992;18.480;2023-03-01T10:36:03;22.60;99.90
37380;DHT22;23252;-33.992;18.480;2023-03-01T10:38:56;22.60;99.90
37380;DHT22;23252;-33.992;18.480;2023-03-01T10:41:25;22.70;99.90
37380;DHT22;23252;-33.992;18.480;2023-03-01T10:43:58;22.70;99.90
37380;DHT22;23252;-33.992;18.480;2023-03-01T10:46:28;22.70;99.90
37380;DHT22;23252;-33.992;18.480;2023-03-01T10:51:40;22.70;99.90
37380;DHT22;23252;-33.992;18.480;2023-03-01T10:54:28;22.60;99.90
37380;DHT22;23252;-33.992;18.480;2023-03-01T10:56:57;22.70;99.90
37380;DHT22;23252;-33.992;18.480;2023-03-01T10:59:30;22.80;99.90
37380;DHT22;23252;-33.992;18.480;2023-03-01T11:02:09;22.80;99.90
37380;DHT22;23252;-33.992;18.480;2023-03-01T11:04:39;22.70;99.90
37380;DHT22;23252;-33.992;18.480;2023-03-01T11:07:08;22.70;99.90
37380;DHT22;23252;-33.992;18.480;2023-03-01T11:09:34;22.90;99.90
37380;DHT22;23252;-33.992;18.480;2023-03-01T11:12:11;23.00;99.90
37380;DHT22;23252;-33.992;18.480;2023-03-01T11:15:04;23.20;99.90
37380;DHT22;23252;-33.992;18.480;2023-03-01T11:17:31;23.20;99.90
37380;DHT22;23252;-33.992;18.480;2023-03-01T11:22:39;23.30;99.90
37380;DHT22;23252;-33.992;18.480;2023-03-01T11:25:13;23.30;99.90
37380;DHT22;23252;-33.992;18.480;2023-03-01T11:27:44;23.40;99.90
37380;DHT22;23252;-33.992;18.480;2023-03-01T11:36:19;23.50;99.90
37380;DHT22;23252;-33.992;18.480;2023-03-01T11:38:49;23.40;99.90
37380;DHT22;23252;-33.992;18.480;2023-03-01T11:41:34;23.40;99.90
37380;DHT22;23252;-33.992;18.480;2023-03-01T11:44:16;23.50;99.90
37380;DHT22;23252;-33.992;18.480;2023-03-01T11:52:59;24.00;99.90
37380;DHT22;23252;-33.992;18.480;2023-03-01T11:55:30;24.20;99.90
37380;DHT22;23252;-33.992;18.480;2023-03-01T11:58:25;24.40;99.90
37380;DHT22;23252;-33.992;18.480;2023-03-01T12:06:34;24.60;99.90
37380;DHT22;23252;-33.992;18.480;2023-03-01T12:20:11;25.10;99.90
37380;DHT22;23252;-33.992;18.480;2023-03-01T12:32:02;26.10;99.90
37380;DHT22;23252;-33.992;18.480;2023-03-01T12:42:51;26.30;99.90
37380;DHT22;23252;-33.992;18.480;2023-03-01T12:51:36;26.40;99.90
37380;DHT22;23252;-33.992;18.480;2023-03-01T12:54:16;26.90;99.90
37380;DHT22;23252;-33.992;18.480;2023-03-01T12:56:47;27.10;99.90
37380;DHT22;23252;-33.992;18.480;2023-03-01T12:59:19;27.00;99.90
37380;DHT22;23252;-33.992;18.480;2023-03-01T13:02:14;26.90;99.90
37380;DHT22;23252;-33.992;18.480;2023-03-01T13:07:31;27.20;99.90
37380;DHT22;23252;-33.992;18.480;2023-03-01T13:10:20;27.30;99.90
37380;DHT22;23252;-33.992;18.480;2023-03-01T13:17:51;27.30;99.90
37380;DHT22;23252;-33.992;18.480;2023-03-01T13:20:20;27.20;99.90
37380;DHT22;23252;-33.992;18.480;2023-03-01T13:22:48;27.30;99.90
37380;DHT22;23252;-33.992;18.480;2023-03-01T13:25:26;27.20;99.90
37380;DHT22;23252;-33.992;18.480;2023-03-01T13:30:58;26.90;99.90
37380;DHT22;23252;-33.992;18.480;2023-03-01T13:35:55;27.50;99.90
37380;DHT22;23252;-33.992;18.480;2023-03-01T13:41:07;27.50;99.90
37380;DHT22;23252;-33.992;18.480;2023-03-01T13:43:39;27.20;99.90
37380;DHT22;23252;-33.992;18.480;2023-03-01T13:46:39;27.50;99.90
37380;DHT22;23252;-33.992;18.480;2023-03-01T13:49:18;27.80;99.90
37380;DHT22;23252;-33.992;18.480;2023-03-01T13:51:50;27.90;99.90
37380;DHT22;23252;-33.992;18.480;2023-03-01T13:54:29;27.80;99.90
37380;DHT22;23252;-33.992;18.480;2023-03-01T13:56:57;27.90;99.90
37380;DHT22;23252;-33.992;18.480;2023-03-01T13:59:25;28.10;99.90
37380;DHT22;23252;-33.992;18.480;2023-03-01T14:02:01;28.10;99.90
37380;DHT22;23252;-33.992;18.480;2023-03-01T14:04:29;28.10;99.90
37380;DHT22;23252;-33.992;18.480;2023-03-01T14:09:41;27.90;99.90
37380;DHT22;23252;-33.992;18.480;2023-03-01T14:15:04;27.70;99.90
37380;DHT22;23252;-33.992;18.480;2023-03-01T14:20:30;27.80;99.90
37380;DHT22;23252;-33.992;18.480;2023-03-01T14:23:08;27.40;99.90
37380;DHT22;23252;-33.992;18.480;2023-03-01T14:25:35;27.40;99.90
37380;DHT22;23252;-33.992;18.480;2023-03-01T14:33:02;27.80;99.90
37380;DHT22;23252;-33.992;18.480;2023-03-01T14:35:32;27.60;99.90
37380;DHT22;23252;-33.992;18.480;2023-03-01T14:37:59;27.30;99.90
37380;DHT22;23252;-33.992;18.480;2023-03-01T14:40:33;27.10;99.90
37380;DHT22;23252;-33.992;18.480;2023-03-01T14:43:04;26.60;99.90
37380;DHT22;23252;-33.992;18.480;2023-03-01T14:45:34;25.90;99.90
37380;DHT22;23252;-33.992;18.480;2023-03-01T14:48:03;25.60;99.90
37380;DHT22;23252;-33.992;18.480;2023-03-01T14:50:40;25.30;99.90
37380;DHT22;23252;-33.992;18.480;2023-03-01T14:53:16;25.00;99.90
37380;DHT22;23252;-33.992;18.480;2023-03-01T14:55:48;24.80;99.90
37380;DHT22;23252;-33.992;18.480;2023-03-01T14:58:18;24.60;99.90
37380;DHT22;23252;-33.992;18.480;2023-03-01T15:00:55;24.40;99.90
37380;DHT22;23252;-33.992;18.480;2023-03-01T15:05:53;24.10;99.90
37380;DHT22;23252;-33.992;18.480;2023-03-01T15:08:23;24.10;99.90
37380;DHT22;23252;-33.992;18.480;2023-03-01T15:11:19;24.00;99.90
37380;DHT22;23252;-33.992;18.480;2023-03-01T15:13:48;23.80;99.90
37380;DHT22;23252;-33.992;18.480;2023-03-01T15:16:34;23.70;99.90
37380;DHT22;23252;-33.992;18.480;2023-03-01T15:19:07;23.70;99.90
37380;DHT22;23252;-33.992;18.480;2023-03-01T15:21:37;23.60;99.90
37380;DHT22;23252;-33.992;18.480;2023-03-01T15:24:17;23.40;99.90
37380;DHT22;23252;-33.992;18.480;2023-03-01T15:26:56;23.40;99.90
37380;DHT22;23252;-33.992;18.480;2023-03-01T15:29:25;23.40;99.90
37380;DHT22;23252;-33.992;18.480;2023-03-01T15:31:58;23.30;99.90
37380;DHT22;23252;-33.992;18.480;2023-03-01T15:34:51;23.30;99.90
37380;DHT22;23252;-33.992;18.480;2023-03-01T15:37:47;23.20;99.90
37380;DHT22;23252;-33.992;18.480;2023-03-01T15:40:28;23.20;99.90
37380;DHT22;23252;-33.992;18.480;2023-03-01T15:42:59;23.10;99.90
37380;DHT22;23252;-33.992;18.480;2023-03-01T15:45:28;23.00;99.90
37380;DHT22;23252;-33.992;18.480;2023-03-01T15:48:01;23.00;99.90
37380;DHT22;23252;-33.992;18.480;2023-03-01T15:50:34;23.00;99.90
37380;DHT22;23252;-33.992;18.480;2023-03-01T15:53:06;23.00;99.90
37380;DHT22;23252;-33.992;18.480;2023-03-01T15:55:33;23.00;99.90
37380;DHT22;23252;-33.992;18.480;2023-03-01T15:58:21;23.00;99.90
37380;DHT22;23252;-33.992;18.480;2023-03-01T16:00:49;22.90;99.90
37380;DHT22;23252;-33.992;18.480;2023-03-01T16:03:22;22.80;99.90
37380;DHT22;23252;-33.992;18.480;2023-03-01T20:16:47;19.80;99.90
37380;DHT22;23252;-33.992;18.480;2023-03-01T20:19:14;19.70;99.90
37380;DHT22;23252;-33.992;18.480;2023-03-01T20:21:40;19.80;99.90
37380;DHT22;23252;-33.992;18.480;2023-03-01T20:24:07;19.80;99.90
37380;DHT22;23252;-33.992;18.480;2023-03-01T20:26:33;19.70;99.90
37380;DHT22;23252;-33.992;18.480;2023-03-01T20:29:00;19.70;99.90
37380;DHT22;23252;-33.992;18.480;2023-03-01T20:31:26;19.70;99.90
37380;DHT22;23252;-33.992;18.480;2023-03-01T20:33:58;19.60;99.90
37380;DHT22;23252;-33.992;18.480;2023-03-01T20:36:26;19.60;99.90
37380;DHT22;23252;-33.992;18.480;2023-03-01T20:38:53;19.60;99.90
37380;DHT22;23252;-33.992;18.480;2023-03-01T20:41:21;19.60;99.90
37380;DHT22;23252;-33.992;18.480;2023-03-01T20:43:51;19.60;99.90
37380;DHT22;23252;-33.992;18.480;2023-03-01T20:46:22;19.60;99.90
37380;DHT22;23252;-33.992;18.480;2023-03-01T20:48:50;19.50;99.90
37380;DHT22;23252;-33.992;18.480;2023-03-01T20:51:17;19.50;99.90
37380;DHT22;23252;-33.992;18.480;2023-03-01T20:53:44;19.50;99.90
37380;DHT22;23252;-33.992;18.480;2023-03-01T20:56:13;19.50;99.90
37380;DHT22;23252;-33.992;18.480;2023-03-01T20:58:40;19.50;99.90
37380;DHT22;23252;-33.992;18.480;2023-03-01T21:01:09;19.50;99.90
37380;DHT22;23252;-33.992;18.480;2023-03-01T21:03:36;19.50;99.90
37380;DHT22;23252;-33.992;18.480;2023-03-01T21:06:04;19.50;99.90
37380;DHT22;23252;-33.992;18.480;2023-03-01T21:08:31;19.50;99.90
37380;DHT22;23252;-33.992;18.480;2023-03-01T21:10:58;19.50;99.90
37380;DHT22;23252;-33.992;18.480;2023-03-01T21:13:25;19.50;99.90
37380;DHT22;23252;-33.992;18.480;2023-03-01T21:16:00;19.60;99.90
37380;DHT22;23252;-33.992;18.480;2023-03-01T21:18:29;19.70;99.90
37380;DHT22;23252;-33.992;18.480;2023-03-01T21:20:59;19.70;99.90
37380;DHT22;23252;-33.992;18.480;2023-03-01T21:23:29;19.90;99.90
37380;DHT22;23252;-33.992;18.480;2023-03-01T21:26:06;20.00;99.90
37380;DHT22;23252;-33.992;18.480;2023-03-01T21:28:32;20.00;99.90
37380;DHT22;23252;-33.992;18.480;2023-03-01T21:31:04;19.90;99.90
37380;DHT22;23252;-33.992;18.480;2023-03-01T21:33:31;19.90;99.90
37380;DHT22;23252;-33.992;18.480;2023-03-01T21:36:03;19.70;99.90
37380;DHT22;23252;-33.992;18.480;2023-03-01T21:38:31;19.70;99.90
37380;DHT22;23252;-33.992;18.480;2023-03-01T21:43:31;19.60;99.90
37380;DHT22;23252;-33.992;18.480;2023-03-01T21:46:01;19.50;99.90
37380;DHT22;23252;-33.992;18.480;2023-03-01T21:48:28;19.50;99.90
37380;DHT22;23252;-33.992;18.480;2023-03-01T21:50:56;19.50;99.90
37380;DHT22;23252;-33.992;18.480;2023-03-01T21:53:24;19.50;99.90
37380;DHT22;23252;-33.992;18.480;2023-03-01T21:55:50;19.50;99.90
37380;DHT22;23252;-33.992;18.480;2023-03-01T21:58:18;19.40;99.90
37380;DHT22;23252;-33.992;18.480;2023-03-01T22:00:45;19.40;99.90
37380;DHT22;23252;-33.992;18.480;2023-03-01T22:03:12;19.40;99.90
37380;DHT22;23252;-33.992;18.480;2023-03-01T22:05:39;19.40;99.90
37380;DHT22;23252;-33.992;18.480;2023-03-01T22:08:06;19.50;99.90
37380;DHT22;23252;-33.992;18.480;2023-03-01T22:10:32;19.50;99.90
37380;DHT22;23252;-33.992;18.480;2023-03-01T22:12:59;19.50;99.90
37380;DHT22;23252;-33.992;18.480;2023-03-01T22:15:27;19.50;99.90
37380;DHT22;23252;-33.992;18.480;2023-03-01T22:17:53;19.50;99.90
37380;DHT22;23252;-33.992;18.480;2023-03-01T22:20:20;19.50;99.90
37380;DHT22;23252;-33.992;18.480;2023-03-01T22:22:46;19.50;99.90
37380;DHT22;23252;-33.992;18.480;2023-03-01T22:25:13;19.50;99.90
37380;DHT22;23252;-33.992;18.480;2023-03-01T22:27:40;19.50;99.90
37380;DHT22;23252;-33.992;18.480;2023-03-01T22:30:09;19.50;99.90
37380;DHT22;23252;-33.992;18.480;2023-03-01T22:32:37;19.50;99.90
37380;DHT22;23252;-33.992;18.480;2023-03-01T22:35:03;19.50;99.90
37380;DHT22;23252;-33.992;18.480;2023-03-01T22:37:30;19.50;99.90
37380;DHT22;23252;-33.992;18.480;2023-03-01T22:39:56;19.50;99.90
37380;DHT22;23252;-33.992;18.480;2023-03-01T22:42:23;19.50;99.90
37380;DHT22;23252;-33.992;18.480;2023-03-01T22:44:50;19.50;99.90
37380;DHT22;23252;-33.992;18.480;2023-03-01T22:47:16;19.50;99.90
37380;DHT22;23252;-33.992;18.480;2023-03-01T22:49:42;19.50;99.90
37380;DHT22;23252;-33.992;18.480;2023-03-01T22:52:09;19.50;99.90
37380;DHT22;23252;-33.992;18.480;2023-03-01T22:54:36;19.60;99.90
37380;DHT22;23252;-33.992;18.480;2023-03-01T22:57:02;19.60;99.90
37380;DHT22;23252;-33.992;18.480;2023-03-01T22:59:29;19.70;99.90
37380;DHT22;23252;-33.992;18.480;2023-03-01T23:01:55;19.70;99.90
37380;DHT22;23252;-33.992;18.480;2023-03-01T23:04:22;19.80;99.90
37380;DHT22;23252;-33.992;18.480;2023-03-01T23:06:49;19.80;99.90
37380;DHT22;23252;-33.992;18.480;2023-03-01T23:09:21;19.90;99.90
37380;DHT22;23252;-33.992;18.480;2023-03-01T23:11:48;20.00;99.90
37380;DHT22;23252;-33.992;18.480;2023-03-01T23:14:16;20.10;99.90
37380;DHT22;23252;-33.992;18.480;2023-03-01T23:16:43;20.10;99.90
37380;DHT22;23252;-33.992;18.480;2023-03-01T23:19:09;20.20;99.90
37380;DHT22;23252;-33.992;18.480;2023-03-01T23:21:36;20.10;99.90
37380;DHT22;23252;-33.992;18.480;2023-03-01T23:24:03;20.10;99.90
37380;DHT22;23252;-33.992;18.480;2023-03-01T23:26:29;20.00;99.90